createdAt,value
2019-04-20T00:01:36.010Z,6.70
2019-04-20T00:04:10.844Z,6.70
2019-04-20T00:06:39.842Z,6.60
2019-04-20T00:09:14.005Z,6.60
2019-04-20T00:11:51.672Z,6.60
2019-04-20T00:14:16.156Z,6.60
2019-04-20T00:16:40.106Z,6.50
2019-04-20T00:19:10.269Z,6.50
2019-04-20T00:21:53.702Z,6.50
2019-04-20T00:24:23.427Z,6.40
2019-04-20T00:27:15.804Z,6.40
2019-04-20T00:29:39.351Z,6.40
2019-04-20T00:32:02.819Z,6.40
2019-04-20T00:34:28.254Z,6.40
2019-04-20T00:36:53.921Z,6.50
2019-04-20T00:39:23.864Z,6.40
2019-04-20T00:41:58.733Z,6.50
2019-04-20T00:44:28.710Z,6.50
2019-04-20T00:47:04.514Z,6.50
2019-04-20T00:49:38.890Z,6.50
2019-04-20T00:52:23.746Z,6.40
2019-04-20T00:54:26.364Z,6.40
2019-04-20T00:57:06.633Z,6.40
2019-04-20T00:59:44.657Z,6.40
2019-04-20T01:02:15.622Z,6.30
2019-04-20T01:04:52.398Z,6.20
2019-04-20T01:07:17.650Z,6.10
2019-04-20T01:09:51.994Z,6.10
2019-04-20T01:12:26.287Z,6.10
2019-04-20T01:14:55.967Z,6.10
2019-04-20T01:17:21.794Z,6.00
2019-04-20T01:19:52.688Z,6.00
2019-04-20T01:22:25.117Z,6.00
2019-04-20T01:24:52.010Z,6.00
2019-04-20T01:27:34.999Z,5.90
2019-04-20T01:30:03.473Z,5.90
2019-04-20T01:32:32.022Z,5.90
2019-04-20T01:35:05.903Z,5.80
2019-04-20T01:37:36.562Z,5.80
2019-04-20T01:39:57.609Z,5.70
2019-04-20T01:42:25.517Z,5.70
2019-04-20T01:44:56.951Z,5.60
2019-04-20T01:47:32.295Z,5.40
2019-04-20T01:50:05.826Z,5.40
2019-04-20T01:52:35.303Z,5.50
2019-04-20T01:55:23.005Z,5.50
2019-04-20T01:58:00.525Z,5.50
2019-04-20T02:00:33.330Z,5.50
2019-04-20T02:03:20.967Z,5.50
2019-04-20T02:05:57.820Z,5.40
2019-04-20T02:08:22.582Z,5.40
2019-04-20T02:10:54.355Z,5.40
2019-04-20T02:13:19.740Z,5.30
2019-04-20T02:15:52.725Z,5.40
2019-04-20T02:18:35.092Z,5.40
2019-04-20T02:21:09.427Z,5.40
2019-04-20T02:23:31.784Z,5.40
2019-04-20T02:25:52.152Z,5.40
2019-04-20T02:28:37.419Z,5.40
2019-04-20T02:33:58.053Z,5.40
2019-04-20T02:36:42.918Z,5.20
2019-04-20T02:39:21.918Z,5.10
2019-04-20T02:46:43.022Z,4.80
2019-04-20T02:49:29.614Z,4.70
2019-04-20T02:51:42.130Z,4.60
2019-04-20T02:56:58.286Z,4.40
2019-04-20T03:01:32.378Z,4.30
2019-04-20T03:03:48.969Z,4.30
2019-04-20T03:06:23.306Z,4.20
2019-04-20T03:09:09.024Z,4.20
2019-04-20T03:11:42.729Z,4.10
2019-04-20T03:14:03.627Z,4.00
2019-04-20T03:16:32.290Z,4.00
2019-04-20T03:19:04.115Z,4.00
2019-04-20T03:21:39.090Z,4.00
2019-04-20T03:24:13.937Z,3.90
2019-04-20T03:26:40.244Z,3.90
2019-04-20T03:29:09.939Z,3.90
2019-04-20T03:32:32.974Z,3.80
2019-04-20T03:37:04.705Z,3.80
2019-04-20T03:39:28.707Z,3.80
2019-04-20T03:41:46.329Z,3.80
2019-04-20T03:44:14.196Z,3.80
2019-04-20T03:46:47.658Z,3.80
2019-04-20T03:49:38.313Z,3.80
2019-04-20T03:52:02.555Z,3.80
2019-04-20T03:54:30.806Z,3.80
2019-04-20T03:57:19.704Z,3.70
2019-04-20T04:00:03.378Z,3.70
2019-04-20T04:02:49.291Z,3.60
2019-04-20T04:05:08.773Z,3.60
2019-04-20T04:07:30.533Z,3.50
2019-04-20T04:10:08.554Z,3.60
2019-04-20T04:12:58.904Z,3.60
2019-04-20T04:15:28.002Z,3.70
2019-04-20T04:18:04.102Z,3.80
2019-04-20T04:20:36.071Z,3.90
2019-04-20T04:23:16.240Z,3.90
2019-04-20T04:25:39.713Z,4.00
2019-04-20T04:28:14.242Z,4.10
2019-04-20T04:30:40.580Z,4.10
2019-04-20T04:33:39.999Z,4.20
2019-04-20T04:35:47.839Z,4.40
2019-04-20T04:38:24.045Z,4.50
2019-04-20T04:41:06.485Z,4.70
2019-04-20T04:43:19.770Z,4.80
2019-04-20T04:45:36.553Z,4.90
2019-04-20T04:48:07.647Z,5.00
2019-04-20T04:50:44.631Z,5.20
2019-04-20T04:53:12.052Z,5.20
2019-04-20T04:55:45.812Z,5.40
2019-04-20T04:58:08.525Z,5.60
2019-04-20T05:00:39.083Z,5.80
2019-04-20T05:03:27.009Z,5.90
2019-04-20T05:06:08.909Z,6.10
2019-04-20T05:08:27.032Z,6.30
2019-04-20T05:10:49.984Z,6.50
2019-04-20T05:13:19.909Z,6.70
2019-04-20T05:16:06.310Z,7.00
2019-04-20T05:18:44.782Z,7.10
2019-04-20T05:21:10.684Z,7.30
2019-04-20T05:23:42.396Z,7.50
2019-04-20T05:26:30.018Z,7.70
2019-04-20T05:28:53.198Z,7.90
2019-04-20T05:31:16.904Z,8.10
2019-04-20T05:34:08.091Z,8.40
2019-04-20T05:36:38.413Z,8.60
2019-04-20T05:39:16.800Z,8.90
2019-04-20T05:41:38.442Z,9.10
2019-04-20T05:44:08.766Z,9.30
2019-04-20T05:46:42.449Z,9.60
2019-04-20T05:49:20.672Z,9.90
2019-04-20T05:51:42.426Z,10.10
2019-04-20T05:54:17.825Z,10.40
2019-04-20T05:59:12.730Z,11.00
2019-04-20T06:01:53.269Z,11.20
2019-04-20T06:04:17.263Z,11.50
2019-04-20T06:06:49.612Z,11.80
2019-04-20T06:09:21.044Z,11.90
2019-04-20T06:11:58.529Z,12.20
2019-04-20T06:14:17.163Z,12.50
2019-04-20T06:17:20.997Z,12.80
2019-04-20T06:19:47.278Z,13.10
2019-04-20T06:22:37.900Z,13.40
2019-04-20T06:25:31.867Z,13.70
2019-04-20T06:27:49.279Z,14.00
2019-04-20T06:30:11.031Z,14.30
2019-04-20T06:33:31.089Z,14.60
2019-04-20T06:36:07.540Z,14.90
2019-04-20T06:38:43.109Z,15.20
2019-04-20T06:41:19.796Z,15.50
2019-04-20T06:43:25.334Z,15.80
2019-04-20T06:46:01.985Z,16.10
2019-04-20T06:48:29.079Z,16.40
2019-04-20T06:50:49.272Z,16.60
2019-04-20T06:53:39.383Z,17.00
2019-04-20T06:56:15.720Z,17.30
2019-04-20T07:01:10.967Z,17.90
2019-04-20T07:06:29.395Z,18.60
2019-04-20T07:11:18.723Z,19.10
2019-04-20T07:13:37.428Z,19.40
2019-04-20T07:16:28.935Z,19.70
2019-04-20T07:19:17.229Z,20.00
2019-04-20T07:22:01.865Z,20.40
2019-04-20T07:24:25.209Z,20.60
2019-04-20T07:26:55.472Z,21.00
2019-04-20T07:29:31.985Z,21.30
2019-04-20T07:31:48.700Z,21.70
2019-04-20T07:34:26.114Z,22.00
2019-04-20T07:37:19.316Z,22.50
2019-04-20T07:39:29.046Z,22.90
2019-04-20T07:42:01.797Z,23.20
2019-04-20T07:44:36.011Z,23.40
2019-04-20T07:47:07.496Z,23.50
2019-04-20T07:49:29.014Z,23.80
2019-04-20T07:51:44.303Z,24.40
2019-04-20T07:54:35.715Z,25.30
2019-04-20T07:56:58.678Z,26.20
2019-04-20T07:59:25.301Z,26.90
2019-04-20T08:02:29.037Z,27.70
2019-04-20T08:04:47.137Z,28.50
2019-04-20T08:07:05.829Z,29.80
2019-04-20T08:09:42.240Z,30.70
2019-04-20T08:12:36.290Z,31.50
2019-04-20T08:15:05.137Z,32.40
2019-04-20T08:17:30.947Z,32.80
2019-04-20T08:19:51.792Z,33.60
2019-04-20T08:22:26.766Z,34.30
2019-04-20T08:24:52.337Z,34.80
2019-04-20T08:27:12.378Z,35.30
2019-04-20T08:29:54.073Z,35.40
2019-04-20T08:32:47.039Z,36.20
2019-04-20T08:35:25.925Z,36.40
2019-04-20T08:38:01.847Z,37.00
2019-04-20T08:40:24.346Z,37.40
2019-04-20T08:43:05.468Z,37.70
2019-04-20T08:45:23.949Z,37.90
2019-04-20T08:47:56.979Z,38.10
2019-04-20T08:50:22.502Z,38.00
2019-04-20T08:53:12.808Z,38.40
2019-04-20T08:55:23.902Z,38.40
2019-04-20T08:57:37.947Z,37.80
2019-04-20T09:00:11.158Z,36.90
2019-04-20T09:02:41.232Z,36.00
2019-04-20T09:05:28.218Z,35.00
2019-04-20T09:07:53.777Z,34.00
2019-04-20T09:10:35.717Z,33.00
2019-04-20T09:12:57.238Z,31.90
2019-04-20T09:15:14.804Z,31.10
2019-04-20T09:17:52.965Z,30.60
2019-04-20T09:20:31.875Z,30.10
2019-04-20T09:23:07.033Z,29.50
2019-04-20T09:28:11.709Z,29.00
2019-04-20T09:30:45.540Z,28.90
2019-04-20T09:33:41.776Z,28.70
2019-04-20T09:36:15.489Z,28.50
2019-04-20T09:39:00.027Z,28.40
2019-04-20T09:41:44.367Z,28.50
2019-04-20T09:43:52.472Z,28.50
2019-04-20T09:46:22.244Z,28.30
2019-04-20T09:48:56.106Z,28.20
2019-04-20T09:51:39.769Z,28.10
2019-04-20T09:54:03.941Z,27.90
2019-04-20T09:56:35.704Z,27.70
2019-04-20T09:59:12.243Z,27.70
2019-04-20T10:01:33.942Z,27.60
2019-04-20T10:03:54.767Z,27.30
2019-04-20T10:06:27.270Z,27.40
2019-04-20T10:08:56.803Z,27.20
2019-04-20T10:11:25.503Z,27.30
2019-04-20T10:13:54.463Z,27.20
2019-04-20T10:16:23.834Z,27.10
2019-04-20T10:18:54.918Z,27.00
2019-04-20T10:21:23.632Z,27.00
2019-04-20T10:23:52.599Z,26.90
2019-04-20T10:26:22.653Z,26.80
2019-04-20T10:28:51.880Z,26.80
2019-04-20T10:31:20.734Z,26.90
2019-04-20T10:33:49.448Z,27.00
2019-04-20T10:36:37.482Z,26.90
2019-04-20T10:39:08.855Z,26.90
2019-04-20T10:41:45.196Z,26.90
2019-04-20T10:44:09.093Z,26.80
2019-04-20T10:46:38.871Z,26.90
2019-04-20T10:49:09.589Z,26.80
2019-04-20T10:51:39.802Z,27.00
2019-04-20T10:54:09.145Z,27.00
2019-04-20T10:56:39.142Z,26.90
2019-04-20T10:59:09.703Z,26.60
2019-04-20T11:01:39.980Z,26.50
2019-04-20T11:04:10.435Z,26.30
2019-04-20T11:06:40.591Z,26.30
2019-04-20T11:09:10.925Z,26.10
2019-04-20T11:11:40.717Z,26.10
2019-04-20T11:14:20.372Z,26.00
2019-04-20T11:16:42.394Z,25.90
2019-04-20T11:19:11.639Z,25.90
2019-04-20T11:21:40.848Z,26.00
2019-04-20T11:24:10.078Z,26.10
2019-04-20T11:26:41.633Z,26.10
2019-04-20T11:29:10.526Z,26.10
2019-04-20T11:31:44.322Z,26.10
2019-04-20T11:34:10.409Z,26.00
2019-04-20T11:36:39.481Z,26.10
2019-04-20T11:39:11.265Z,26.10
2019-04-20T11:41:41.486Z,26.10
2019-04-20T11:44:11.700Z,26.00
2019-04-20T11:46:40.799Z,26.00
2019-04-20T11:49:09.892Z,26.10
2019-04-20T11:51:39.406Z,26.00
2019-04-20T11:54:08.472Z,25.90
2019-04-20T11:56:40.792Z,25.90
2019-04-20T11:59:09.328Z,26.00
2019-04-20T12:01:49.030Z,25.90
2019-04-20T12:04:27.120Z,25.80
2019-04-20T12:06:43.420Z,25.70
2019-04-20T12:09:12.893Z,25.70
2019-04-20T12:11:58.494Z,25.60
2019-04-20T12:14:12.636Z,25.50
2019-04-20T12:16:41.716Z,25.40
2019-04-20T12:19:10.724Z,25.40
2019-04-20T12:21:39.479Z,25.30
2019-04-20T12:24:08.286Z,25.40
2019-04-20T12:26:38.536Z,25.30
2019-04-20T12:29:07.896Z,25.30
2019-04-20T12:31:37.712Z,25.30
2019-04-20T12:34:06.793Z,25.30
2019-04-20T12:36:35.615Z,25.30
2019-04-20T12:39:08.912Z,25.10
2019-04-20T12:41:46.202Z,24.90
2019-04-20T12:44:09.653Z,24.90
2019-04-20T12:46:38.922Z,24.90
2019-04-20T12:49:07.850Z,25.00
2019-04-20T12:51:45.473Z,25.00
2019-04-20T12:54:07.047Z,25.10
2019-04-20T12:56:36.046Z,25.10
2019-04-20T12:59:05.581Z,25.00
2019-04-20T13:01:35.431Z,24.90
2019-04-20T13:04:07.349Z,24.70
2019-04-20T13:06:37.338Z,24.70
2019-04-20T13:09:10.641Z,24.60
2019-04-20T13:11:51.649Z,24.60
2019-04-20T13:14:34.803Z,24.40
2019-04-20T13:17:04.180Z,24.20
2019-04-20T13:19:33.334Z,24.10
2019-04-20T13:22:03.239Z,24.00
2019-04-20T13:24:32.450Z,23.80
2019-04-20T13:27:02.640Z,23.80
2019-04-20T13:29:33.545Z,24.00
2019-04-20T13:32:02.404Z,24.00
2019-04-20T13:34:31.988Z,24.00
2019-04-20T13:37:02.186Z,23.70
2019-04-20T13:39:31.097Z,23.70
2019-04-20T13:42:10.518Z,23.90
2019-04-20T13:44:30.722Z,24.00
2019-04-20T13:47:00.820Z,24.00
2019-04-20T13:49:31.220Z,24.10
2019-04-20T13:52:00.424Z,24.20
2019-04-20T13:54:29.853Z,24.20
2019-04-20T13:57:00.630Z,24.00
2019-04-20T13:59:32.467Z,23.90
2019-04-20T14:02:15.044Z,23.80
2019-04-20T14:04:46.527Z,23.80
2019-04-20T14:07:17.019Z,23.90
2019-04-20T14:09:47.703Z,24.00
2019-04-20T14:12:25.172Z,24.00
2019-04-20T14:14:51.052Z,23.90
2019-04-20T14:17:21.124Z,23.80
2019-04-20T14:19:50.529Z,23.70
2019-04-20T14:22:20.739Z,23.40
2019-04-20T14:24:51.019Z,23.20
2019-04-20T14:27:21.139Z,23.00
2019-04-20T14:29:50.927Z,22.90
2019-04-20T14:32:40.823Z,22.90
2019-04-20T14:35:11.238Z,22.90
2019-04-20T14:37:41.376Z,22.80
2019-04-20T14:40:12.531Z,22.80
2019-04-20T14:42:46.433Z,22.80
2019-04-20T14:45:12.422Z,22.80
2019-04-20T14:47:41.534Z,22.70
2019-04-20T14:50:11.840Z,22.70
2019-04-20T14:52:41.760Z,22.70
2019-04-20T14:55:13.768Z,22.50
2019-04-20T14:57:41.746Z,22.40
2019-04-20T15:00:31.879Z,22.30
2019-04-20T15:03:03.838Z,22.30
2019-04-20T15:05:32.938Z,22.30
2019-04-20T15:08:02.746Z,22.30
2019-04-20T15:10:32.932Z,22.30
2019-04-20T15:13:04.546Z,22.30
2019-04-20T15:15:32.592Z,22.10
2019-04-20T15:18:05.929Z,22.00
2019-04-20T15:20:37.437Z,22.00
2019-04-20T15:23:08.006Z,22.10
2019-04-20T15:25:37.065Z,22.10
2019-04-20T15:28:06.152Z,22.20
2019-04-20T15:30:36.124Z,22.10
2019-04-20T15:33:05.212Z,22.20
2019-04-20T15:35:34.705Z,22.10
2019-04-20T15:38:04.990Z,22.20
2019-04-20T15:40:35.236Z,22.10
2019-04-20T15:43:11.782Z,22.10
2019-04-20T15:45:34.641Z,22.00
2019-04-20T15:48:03.796Z,21.80
2019-04-20T15:50:33.902Z,21.80
2019-04-20T15:53:03.963Z,21.70
2019-04-20T15:55:37.972Z,21.60
2019-04-20T15:58:06.403Z,21.40
2019-04-20T16:00:36.307Z,21.30
2019-04-20T16:03:19.218Z,21.10
2019-04-20T16:06:05.379Z,20.90
2019-04-20T16:08:36.647Z,20.70
2019-04-20T16:11:06.989Z,20.60
2019-04-20T16:13:40.330Z,20.60
2019-04-20T16:16:07.834Z,20.60
2019-04-20T16:18:37.098Z,20.50
2019-04-20T16:21:11.697Z,20.30
2019-04-20T16:23:41.152Z,20.20
2019-04-20T16:26:23.873Z,20.00
2019-04-20T16:28:53.503Z,19.80
2019-04-20T16:31:22.748Z,19.70
2019-04-20T16:33:54.018Z,19.50
2019-04-20T16:36:22.847Z,19.40
2019-04-20T16:38:53.169Z,19.20
2019-04-20T16:41:22.334Z,19.10
2019-04-20T16:43:51.642Z,19.00
2019-04-20T16:46:23.628Z,18.90
2019-04-20T16:48:51.028Z,18.90
2019-04-20T16:51:20.822Z,18.80
2019-04-20T16:53:50.146Z,18.70
2019-04-20T16:56:21.076Z,18.60
2019-04-20T16:58:57.306Z,18.50
2019-04-20T17:01:21.372Z,18.50
2019-04-20T17:04:01.793Z,18.40
2019-04-20T17:06:26.307Z,18.30
2019-04-20T17:08:56.535Z,18.20
2019-04-20T17:11:25.731Z,18.20
2019-04-20T17:13:58.038Z,18.10
2019-04-20T17:16:25.976Z,17.90
2019-04-20T17:18:55.303Z,17.90
2019-04-20T17:21:27.717Z,17.70
2019-04-20T17:23:55.467Z,17.70
2019-04-20T17:26:27.280Z,17.50
2019-04-20T17:29:10.566Z,17.40
2019-04-20T17:31:41.298Z,17.30
2019-04-20T17:34:26.955Z,17.20
2019-04-20T17:36:40.678Z,17.00
2019-04-20T17:39:12.531Z,16.90
2019-04-20T17:41:56.313Z,16.80
2019-04-20T17:44:30.277Z,16.60
2019-04-20T17:46:52.384Z,16.50
2019-04-20T17:49:28.303Z,16.40
2019-04-20T17:52:05.119Z,16.30
2019-04-20T17:54:15.821Z,16.10
2019-04-20T17:56:46.671Z,16.10
2019-04-20T17:59:16.679Z,16.00
2019-04-20T18:02:07.852Z,15.90
2019-04-20T18:05:03.785Z,15.80
2019-04-20T18:07:28.431Z,15.70
2019-04-20T18:09:58.860Z,15.70
2019-04-20T18:12:07.595Z,15.60
2019-04-20T18:14:48.075Z,15.60
2019-04-20T18:17:24.342Z,15.50
2019-04-20T18:19:45.011Z,15.40
2019-04-20T18:22:14.166Z,15.40
2019-04-20T18:25:09.161Z,15.30
2019-04-20T18:27:39.934Z,15.20
2019-04-20T18:30:04.082Z,15.20
2019-04-20T18:32:16.022Z,15.10
2019-04-20T18:34:54.150Z,15.10
2019-04-20T18:37:21.533Z,15.10
2019-04-20T18:39:57.389Z,15.00
2019-04-20T18:42:29.109Z,14.90
2019-04-20T18:45:09.054Z,14.90
2019-04-20T18:47:42.158Z,14.80
2019-04-20T18:50:03.140Z,14.80
2019-04-20T18:52:24.452Z,14.70
2019-04-20T18:54:55.567Z,14.70
2019-04-20T18:57:28.704Z,14.60
2019-04-20T18:59:56.681Z,14.60
2019-04-20T19:02:31.196Z,14.50
2019-04-20T19:04:58.618Z,14.40
2019-04-20T19:07:27.995Z,14.40
2019-04-20T19:10:02.603Z,14.30
2019-04-20T19:12:36.666Z,14.30
2019-04-20T19:15:20.765Z,14.20
2019-04-20T19:17:49.698Z,14.20
2019-04-20T19:20:29.032Z,14.20
2019-04-20T19:22:59.932Z,14.10
2019-04-20T19:25:34.562Z,14.00
2019-04-20T19:28:01.330Z,14.00
2019-04-20T19:30:37.247Z,13.90
2019-04-20T19:33:18.737Z,13.90
2019-04-20T19:35:41.613Z,13.80
2019-04-20T19:38:10.330Z,13.80
2019-04-20T19:40:45.424Z,13.80
2019-04-20T19:43:30.507Z,13.70
2019-04-20T19:46:31.459Z,13.60
2019-04-20T19:48:39.073Z,13.50
2019-04-20T19:51:19.226Z,13.40
2019-04-20T19:53:48.718Z,13.30
2019-04-20T19:56:07.762Z,13.20
2019-04-20T19:58:34.379Z,13.10
2019-04-20T20:00:59.460Z,12.90
2019-04-20T20:03:27.947Z,12.80
2019-04-20T20:05:58.284Z,12.80
2019-04-20T20:08:29.954Z,12.60
2019-04-20T20:11:00.851Z,12.50
2019-04-20T20:13:37.521Z,12.40
2019-04-20T20:16:08.936Z,12.20
2019-04-20T20:18:46.570Z,12.10
2019-04-20T20:21:15.185Z,12.00
2019-04-20T20:23:32.063Z,11.90
2019-04-20T20:26:05.068Z,11.80
2019-04-20T20:28:40.376Z,11.80
2019-04-20T20:31:17.121Z,11.70
2019-04-20T20:33:49.672Z,11.60
2019-04-20T20:36:12.569Z,11.60
2019-04-20T20:38:42.255Z,11.50
2019-04-20T20:41:15.155Z,11.50
2019-04-20T20:43:48.164Z,11.40
2019-04-20T20:46:21.347Z,11.40
2019-04-20T20:49:03.482Z,11.30
2019-04-20T20:51:35.533Z,11.20
2019-04-20T20:53:50.878Z,11.10
2019-04-20T20:56:22.605Z,11.00
2019-04-20T20:58:53.980Z,10.90
2019-04-20T21:01:23.765Z,10.90
2019-04-20T21:03:52.646Z,10.80
2019-04-20T21:06:20.273Z,10.70
2019-04-20T21:08:53.736Z,10.60
2019-04-20T21:11:24.217Z,10.50
2019-04-20T21:13:52.799Z,10.50
2019-04-20T21:16:26.656Z,10.40
2019-04-20T21:19:13.507Z,10.40
2019-04-20T21:21:37.372Z,10.30
2019-04-20T21:24:05.148Z,10.20
2019-04-20T21:26:34.992Z,10.10
2019-04-20T21:28:59.655Z,10.00
2019-04-20T21:31:29.664Z,9.90
2019-04-20T21:34:01.863Z,9.80
2019-04-20T21:36:31.780Z,9.80
2019-04-20T21:39:01.581Z,9.70
2019-04-20T21:41:31.073Z,9.60
2019-04-20T21:44:01.154Z,9.50
2019-04-20T21:46:39.858Z,9.40
2019-04-20T21:49:18.216Z,9.30
2019-04-20T21:51:44.285Z,9.20
2019-04-20T21:54:04.926Z,9.10
2019-04-20T21:56:39.267Z,9.00
2019-04-20T21:59:14.233Z,8.90
2019-04-20T22:01:39.732Z,8.80
2019-04-20T22:04:08.290Z,8.70
2019-04-20T22:06:38.244Z,8.60
2019-04-20T22:09:10.737Z,8.50
2019-04-20T22:11:40.261Z,8.50
2019-04-20T22:14:17.520Z,8.50
2019-04-20T22:16:47.989Z,8.50
2019-04-20T22:19:28.605Z,8.50
2019-04-20T22:21:53.141Z,8.40
2019-04-20T22:24:28.659Z,8.40
2019-04-20T22:26:58.896Z,8.30
2019-04-20T22:29:16.207Z,8.30
2019-04-20T22:31:52.352Z,8.20
2019-04-20T22:34:20.809Z,8.10
2019-04-20T22:36:48.715Z,8.00
2019-04-20T22:39:32.225Z,8.00
2019-04-20T22:42:02.647Z,7.90
2019-04-20T22:44:28.308Z,7.90
2019-04-20T22:46:58.350Z,7.80
2019-04-20T22:49:45.537Z,7.70
2019-04-20T22:52:06.337Z,7.60
2019-04-20T22:54:46.722Z,7.40
2019-04-20T22:57:10.701Z,7.40
2019-04-20T22:59:38.372Z,7.30
2019-04-20T23:02:02.364Z,7.30
2019-04-20T23:04:31.011Z,7.30
2019-04-20T23:07:00.926Z,7.30
2019-04-20T23:09:32.759Z,7.20
2019-04-20T23:12:09.120Z,7.20
2019-04-20T23:14:32.095Z,7.10
2019-04-20T23:17:02.153Z,7.10
2019-04-20T23:19:38.234Z,7.00
2019-04-20T23:22:06.450Z,7.00
2019-04-20T23:24:33.202Z,6.90
2019-04-20T23:27:06.571Z,6.90
2019-04-20T23:29:36.454Z,6.80
2019-04-20T23:32:06.511Z,6.70
2019-04-20T23:34:34.637Z,6.60
2019-04-20T23:37:08.798Z,6.60
2019-04-20T23:39:36.436Z,6.50
2019-04-20T23:42:08.914Z,6.50
2019-04-20T23:44:40.019Z,6.40
2019-04-20T23:47:19.822Z,6.40
2019-04-20T23:50:03.359Z,6.40
2019-04-20T23:52:45.502Z,6.40
2019-04-20T23:54:58.150Z,6.30
2019-04-20T23:57:21.795Z,6.30
2019-04-20T23:59:51.990Z,6.30
